^^
NorthLandsweather Station Historical Data
 
Daily Summary for June 19, 2019 Units:  English    Metric   Both
Daily Weekly Monthly Yearly Custom
  Current: High: Low: Average:
Temperature: 72.9 °F 74 °F 48.5 °F 59 °F
Dew Point: 52.6 °F 56.2 °F 47.1 °F 51.5 °F
Humidity: 49% 96% 45% 79%
Wind Speed: 2.3mph 5.8mph 0mph 1.2mph
Wind Gust: 0.1mph 2.5mph - -
WindNNE - - ESE
Pressure: 29.78 in 29.92 in 29.78 in -
Precipitation: 0 in      
Historical Graphs
 
 
Tabular Data for June 19, 2019
Time Temperature Dew Point Pressure Wind Wind Speed Wind Gust Humidity Rainfall Rate (Hourly) solar
00:04 52.1 °F 49.8 °F 29.91 in Calm     92% 0 in 0.00 W/m2
00:09 52 °F 49.7 °F 29.91 in Calm     92% 0 in 0.00 W/m2
00:14 51.8 °F 49.5 °F 29.91 in Calm     92% 0 in 0.00 W/m2
00:19 51.7 °F 49.5 °F 29.91 in Calm     92% 0 in 0.00 W/m2
00:24 51.6 °F 49.6 °F 29.92 in Calm     93% 0 in 0.00 W/m2
00:29 51.4 °F 49.4 °F 29.91 in Calm     93% 0 in 0.00 W/m2
00:34 51.3 °F 49.3 °F 29.91 in Calm     93% 0 in 0.00 W/m2
00:39 51.1 °F 49.1 °F 29.91 in Calm     93% 0 in 0.00 W/m2
00:44 50.9 °F 48.9 °F 29.91 in Calm     93% 0 in 0.00 W/m2
00:49 50.7 °F 48.7 °F 29.91 in Calm     93% 0 in 0.00 W/m2
00:54 50.6 °F 48.7 °F 29.92 in Calm     93% 0 in 0.00 W/m2
00:59 50.5 °F 48.6 °F 29.91 in Calm     93% 0 in 0.00 W/m2
01:04 50.4 °F 48.5 °F 29.91 in Calm     93% 0 in 0.00 W/m2
01:09 50.3 °F 48.4 °F 29.91 in Calm     93% 0 in 0.00 W/m2
01:14 50.2 °F 48.3 °F 29.91 in Calm     93% 0 in 0.00 W/m2
01:19 50.1 °F 48.2 °F 29.91 in Calm     93% 0 in 0.00 W/m2
01:24 49.9 °F 48 °F 29.91 in Calm     93% 0 in 0.00 W/m2
01:29 49.9 °F 48.2 °F 29.91 in Calm     94% 0 in 0.00 W/m2
01:34 49.9 °F 48.2 °F 29.91 in Calm     94% 0 in 0.00 W/m2
01:39 49.8 °F 48.1 °F 29.91 in Calm     94% 0 in 0.00 W/m2
01:44 49.8 °F 48.1 °F 29.91 in Calm     94% 0 in 0.00 W/m2
01:49 49.8 °F 48.1 °F 29.91 in Calm     94% 0 in 0.00 W/m2
01:54 49.9 °F 48.2 °F 29.91 in Calm     94% 0 in 0.00 W/m2
01:59 49.9 °F 48.2 °F 29.91 in Calm     94% 0 in 0.00 W/m2
02:04 50 °F 48.6 °F 29.91 in Calm     95% 0 in 0.00 W/m2
02:09 50.1 °F 48.7 °F 29.90 in Calm     95% 0 in 0.00 W/m2
02:14 50.2 °F 48.8 °F 29.90 in Calm     95% 0 in 0.00 W/m2
02:19 50.3 °F 48.9 °F 29.90 in Calm     95% 0 in 0.00 W/m2
02:24 50.5 °F 49.1 °F 29.90 in Calm     95% 0 in 0.00 W/m2
02:29 50.7 °F 49.3 °F 29.90 in Calm     95% 0 in 0.00 W/m2
02:34 50.9 °F 49.5 °F 29.90 in Calm     95% 0 in 0.00 W/m2
02:39 51 °F 49.6 °F 29.89 in Calm     95% 0 in 0.00 W/m2
02:44 51.2 °F 49.8 °F 29.89 in Calm     95% 0 in 0.00 W/m2
02:49 51.3 °F 49.9 °F 29.89 in Calm     95% 0 in 0.00 W/m2
02:54 51.5 °F 50.1 °F 29.89 in Calm     95% 0 in 0.00 W/m2
02:59 51.5 °F 50.1 °F 29.89 in Calm     95% 0 in 0.00 W/m2
03:04 51.6 °F 50.2 °F 29.89 in Calm     95% 0 in 0.00 W/m2
03:09 51.6 °F 50.2 °F 29.89 in Calm     95% 0 in 0.00 W/m2
03:14 51.7 °F 50.3 °F 29.89 in Calm     95% 0 in 0.00 W/m2
03:19 51.7 °F 50.3 °F 29.89 in Calm     95% 0 in 0.00 W/m2
03:24 51.7 °F 50.3 °F 29.89 in Calm     95% 0 in 0.00 W/m2
03:29 51.7 °F 50.3 °F 29.88 in Calm     95% 0 in 0.00 W/m2
03:34 51.7 °F 50.3 °F 29.88 in Calm     95% 0 in 0.00 W/m2
03:39 51.6 °F 50.2 °F 29.88 in Calm     95% 0 in 0.00 W/m2
03:44 51.6 °F 50.2 °F 29.88 in Calm     95% 0 in 0.00 W/m2
03:49 51.6 °F 50.2 °F 29.88 in Calm     95% 0 in 0.00 W/m2
03:54 51.5 °F 50.1 °F 29.88 in Calm     95% 0 in 0.00 W/m2
03:59 51.5 °F 50.1 °F 29.88 in Calm     95% 0 in 0.00 W/m2
04:04 51.4 °F 50 °F 29.88 in Calm     95% 0 in 0.00 W/m2
04:09 51.4 °F 50 °F 29.88 in Calm     95% 0 in 0.00 W/m2
04:14 51.4 °F 50 °F 29.88 in Calm     95% 0 in 0.00 W/m2
04:19 51.3 °F 49.9 °F 29.88 in Calm     95% 0 in 0.00 W/m2
04:24 51.2 °F 49.8 °F 29.88 in Calm     95% 0 in 0.00 W/m2
04:29 51.1 °F 49.7 °F 29.88 in Calm     95% 0 in 0.00 W/m2
04:34 51 °F 49.6 °F 29.88 in Calm     95% 0 in 0.00 W/m2
04:39 50.8 °F 49.4 °F 29.88 in Calm     95% 0 in 0.00 W/m2
04:44 50.7 °F 49.3 °F 29.88 in Calm     95% 0 in 0.00 W/m2
04:49 50.6 °F 49.2 °F 29.88 in Calm     95% 0 in 0.00 W/m2
04:54 50.5 °F 49.1 °F 29.88 in Calm     95% 0 in 0.00 W/m2
04:59 50.3 °F 48.6 °F 29.88 in Calm     94% 0 in 0.00 W/m2
05:04 50.1 °F 48.4 °F 29.88 in Calm     94% 0 in 0.00 W/m2
05:09 50 °F 48.6 °F 29.88 in Calm     95% 0 in 67.40 W/m2
05:14 49.8 °F 48.4 °F 29.89 in Calm     95% 0 in 129.00 W/m2
05:19 49.6 °F 47.9 °F 29.89 in Calm     94% 0 in 155.20 W/m2
05:24 49.4 °F 48 °F 29.89 in Calm     95% 0 in 164.30 W/m2
05:29 49.4 °F 48 °F 29.89 in Calm     95% 0 in 180.50 W/m2
05:34 49.3 °F 47.9 °F 29.89 in Calm     95% 0 in 191.60 W/m2
05:39 49.2 °F 47.8 °F 29.89 in Calm     95% 0 in 195.60 W/m2
05:44 49.1 °F 47.7 °F 29.89 in Calm     95% 0 in 199.70 W/m2
05:49 49 °F 47.6 °F 29.89 in Calm     95% 0 in 206.70 W/m2
05:54 48.8 °F 47.4 °F 29.89 in Calm     95% 0 in 208.80 W/m2
05:59 48.8 °F 47.4 °F 29.89 in Calm     95% 0 in 215.80 W/m2
06:04 48.7 °F 47.3 °F 29.89 in Calm     95% 0 in 212.80 W/m2
06:09 48.6 °F 47.2 °F 29.89 in Calm     95% 0 in 217.80 W/m2
06:14 48.5 °F 47.1 °F 29.89 in Calm     95% 0 in 217.80 W/m2
06:19 48.5 °F 47.1 °F 29.88 in Calm     95% 0 in 221.90 W/m2
06:24 48.6 °F 47.2 °F 29.89 in Calm     95% 0 in 222.90 W/m2
06:29 48.7 °F 47.3 °F 29.89 in Calm     95% 0 in 226.90 W/m2
06:34 48.8 °F 47.4 °F 29.89 in Calm     95% 0 in 226.90 W/m2
06:39 48.9 °F 47.5 °F 29.89 in Calm     95% 0 in 227.90 W/m2
06:44 49.1 °F 47.7 °F 29.89 in Calm     95% 0 in 227.90 W/m2
06:49 49.3 °F 48.2 °F 29.89 in Calm     96% 0 in 231.00 W/m2
06:54 49.6 °F 48.5 °F 29.89 in Calm     96% 0 in 234.00 W/m2
06:59 50.1 °F 49 °F 29.89 in Calm     96% 0 in 232.00 W/m2
07:04 50.5 °F 49.4 °F 29.89 in Calm     96% 0 in 237.00 W/m2
07:09 51.1 °F 50 °F 29.89 in Calm     96% 0 in 237.00 W/m2
07:14 51.5 °F 50.4 °F 29.89 in Calm     96% 0 in 239.10 W/m2
07:19 51.9 °F 50.8 °F 29.89 in Calm     96% 0 in 238.10 W/m2
07:24 52.3 °F 51.2 °F 29.89 in Calm     96% 0 in 237.00 W/m2
07:29 52.6 °F 51.5 °F 29.89 in Calm     96% 0 in 242.10 W/m2
07:34 52.9 °F 51.8 °F 29.89 in Calm     96% 0 in 241.10 W/m2
07:39 53.2 °F 52.1 °F 29.89 in Calm     96% 0 in 240.10 W/m2
07:44 53.6 °F 52.5 °F 29.90 in Calm   0.1 mph 96% 0 in 245.10 W/m2
07:49 54 °F 52.9 °F 29.90 in Calm     96% 0 in 244.10 W/m2
07:54 54.3 °F 53.2 °F 29.90 in Calm     96% 0 in 247.10 W/m2
07:59 54.8 °F 53.7 °F 29.90 in WSW 1.2 mph 0.2 mph 96% 0 in 246.10 W/m2
08:04 55.1 °F 53.7 °F 29.90 in Calm     95% 0 in 249.20 W/m2
08:09 55.6 °F 54.2 °F 29.90 in WSW 2.3 mph 0.2 mph 95% 0 in 251.20 W/m2
08:14 56.3 °F 54 °F 29.89 in WSW 2.3 mph 0.2 mph 92% 0 in 250.20 W/m2
08:19 56.8 °F 54.5 °F 29.90 in WSW 1 mph 0.4 mph 92% 0 in 248.20 W/m2
08:24 57.3 °F 54.4 °F 29.90 in WSW 1.2 mph 0.1 mph 90% 0 in 254.20 W/m2
08:29 57.9 °F 54.4 °F 29.89 in WSW 2.3 mph 0.5 mph 88% 0 in 252.20 W/m2
08:34 58.5 °F 54.3 °F 29.90 in WSW 2.3 mph 0.9 mph 86% 0 in 254.20 W/m2
08:39 59 °F 54.2 °F 29.89 in WSW 2.3 mph 0.8 mph 84% 0 in 257.20 W/m2
08:44 59.4 °F 53.9 °F 29.89 in WSW 2.3 mph 0.7 mph 82% 0 in 261.30 W/m2
08:49 59.7 °F 54.2 °F 29.89 in WSW 1.2 mph 0.5 mph 82% 0 in 257.20 W/m2
08:54 60 °F 54.8 °F 29.90 in Calm   0.4 mph 83% 0 in 258.30 W/m2
08:59 60.4 °F 54.9 °F 29.90 in West 2.3 mph 1.3 mph 82% 0 in 266.30 W/m2
09:04 60.7 °F 54.8 °F 29.89 in WNW 2 mph 0.2 mph 81% 0 in 269.40 W/m2
09:09 60.9 °F 54.7 °F 29.89 in WNW 3.5 mph 0.7 mph 80% 0 in 264.30 W/m2
09:14 61.2 °F 55 °F 29.89 in WNW 2.3 mph 0.3 mph 80% 0 in 264.30 W/m2
09:19 61.9 °F 55.3 °F 29.89 in West 1.2 mph 0.6 mph 79% 0 in 286.50 W/m2
09:24 62.4 °F 55.8 °F 29.89 in North 2.3 mph 1.8 mph 79% 0 in 274.40 W/m2
09:29 62.5 °F 55.2 °F 29.89 in North 2.3 mph 0.9 mph 77% 0 in 273.40 W/m2
09:34 62.7 °F 54.7 °F 29.89 in ENE 2.3 mph 1.6 mph 75% 0 in 263.30 W/m2
09:39 62.9 °F 54.9 °F 29.89 in ENE 1.2 mph 0.3 mph 75% 0 in 263.30 W/m2
09:44 63 °F 55.3 °F 29.89 in ENE 1.2 mph 0.2 mph 76% 0 in 265.30 W/m2
09:49 63.2 °F 56.2 °F 29.88 in ENE 1.2 mph 1 mph 78% 0 in 281.50 W/m2
09:54 63.4 °F 55.3 °F 29.88 in NE 2.3 mph 0.8 mph 75% 0 in 270.40 W/m2
09:59 63.5 °F 55.1 °F 29.88 in NNE 2.3 mph 1.2 mph 74% 0 in 274.40 W/m2
10:04 63.8 °F 55 °F 29.87 in ENE 1.2 mph 0.6 mph 73% 0 in 290.60 W/m2
10:09 64.1 °F 54.9 °F 29.87 in ENE 2.3 mph 1.3 mph 72% 0 in 278.40 W/m2
10:14 64.4 °F 55.2 °F 29.87 in NNW 1.2 mph 0.8 mph 72% 0 in 272.40 W/m2
10:19 64.8 °F 54.8 °F 29.87 in NE 2.3 mph 0.5 mph 70% 0 in 277.40 W/m2
10:24 64.9 °F 55.7 °F 29.87 in North 2 mph 0.9 mph 72% 0 in 274.40 W/m2
10:29 65.1 °F 55.5 °F 29.87 in North 1.2 mph 0.8 mph 71% 0 in 288.60 W/m2
10:34 65.4 °F 55 °F 29.86 in NE 3.5 mph 1.3 mph 69% 0 in 279.50 W/m2
10:39 65.7 °F 54.8 °F 29.86 in NE 3.5 mph 0.8 mph 68% 0 in 282.50 W/m2
10:44 65.9 °F 54.6 °F 29.86 in ENE 3.5 mph 1.4 mph 67% 0 in 281.50 W/m2
10:49 66.1 °F 54 °F 29.86 in East 2.3 mph 0.4 mph 65% 0 in 281.50 W/m2
10:54 66.2 °F 54.5 °F 29.86 in North 2 mph 1.3 mph 66% 0 in 289.60 W/m2
10:59 66.5 °F 53.9 °F 29.86 in ENE 3.5 mph 0.3 mph 64% 0 in 286.50 W/m2
11:04 66.7 °F 54.1 °F 29.85 in ENE 1.2 mph 0.2 mph 64% 0 in 286.50 W/m2
11:09 67 °F 53.5 °F 29.85 in WNW 3.5 mph 1.1 mph 62% 0 in 284.50 W/m2
11:14 67.1 °F 53.2 °F 29.85 in ENE 3.5 mph 0.8 mph 61% 0 in 292.60 W/m2
11:19 67.4 °F 53.5 °F 29.85 in NE 2.3 mph 1 mph 61% 0 in 303.70 W/m2
11:24 67.6 °F 54.1 °F 29.85 in NE 3.5 mph 0.4 mph 62% 0 in 300.70 W/m2
11:29 68 °F 54 °F 29.85 in NE 3.5 mph 0.9 mph 61% 0 in 785.50 W/m2
11:34 68.3 °F 54.3 °F 29.85 in ESE 2.3 mph 0.8 mph 61% 0 in 825.90 W/m2
11:39 68.8 °F 55.2 °F 29.84 in East 2.3 mph 0.7 mph 62% 0 in 862.20 W/m2
11:44 69.4 °F 54 °F 29.84 in East 2.3 mph 1.4 mph 58% 0 in 870.30 W/m2
11:49 69.6 °F 54.2 °F 29.84 in East 2.3 mph 1.2 mph 58% 0 in 867.30 W/m2
11:54 69.8 °F 54.4 °F 29.84 in ENE 2.3 mph 1.7 mph 58% 0 in 870.30 W/m2
11:59 70 °F 54.1 °F 29.84 in NE 3.5 mph 1.5 mph 57% 0 in 871.30 W/m2
12:04 70.1 °F 53.2 °F 29.84 in NNE 2 mph 0.3 mph 55% 0 in 871.30 W/m2
12:09 70.3 °F 52.9 °F 29.84 in ENE 3.5 mph 2.4 mph 54% 0 in 874.30 W/m2
12:14 70.4 °F 52.4 °F 29.84 in ENE 2.3 mph 0.4 mph 53% 0 in 840.00 W/m2
12:19 70.6 °F 52.6 °F 29.84 in ENE 3.5 mph 0.8 mph 53% 0 in 868.30 W/m2
12:24 70.8 °F 54.3 °F 29.84 in East 4.6 mph 1.9 mph 56% 0 in 878.40 W/m2
12:29 70.9 °F 53.9 °F 29.84 in ENE 3.5 mph 2.1 mph 55% 0 in 874.30 W/m2
12:34 71 °F 52.5 °F 29.84 in ENE 2.3 mph 1.7 mph 52% 0 in 886.50 W/m2
12:39 70.9 °F 52.9 °F 29.83 in East 2.3 mph 0.6 mph 53% 0 in 867.30 W/m2
12:44 71 °F 54.5 °F 29.83 in East 2.3 mph 1.4 mph 56% 0 in 882.40 W/m2
12:49 71.3 °F 54.3 °F 29.83 in ENE 3.5 mph 0.9 mph 55% 0 in 847.10 W/m2
12:54 71.4 °F 53.4 °F 29.83 in ENE 1.2 mph 0.1 mph 53% 0 in 879.40 W/m2
12:59 71.7 °F 53.1 °F 29.83 in ENE 3.5 mph 1.4 mph 52% 0 in 889.50 W/m2
13:04 71.8 °F 53.2 °F 29.83 in NE 3.5 mph 1.2 mph 52% 0 in 892.50 W/m2
13:09 71.6 °F 54.6 °F 29.83 in NE 2.3 mph 1 mph 55% 0 in 884.40 W/m2
13:14 71.6 °F 53 °F 29.82 in NNE 3.5 mph 0.7 mph 52% 0 in 860.20 W/m2
13:19 71.8 °F 52.2 °F 29.82 in NW 5.8 mph 0.5 mph 50% 0 in 883.40 W/m2
13:24 72 °F 53.9 °F 29.82 in NNE 3.5 mph 1.2 mph 53% 0 in 882.40 W/m2
13:29 72.1 °F 53 °F 29.82 in East 2.3 mph 0.8 mph 51% 0 in 891.50 W/m2
13:34 72.1 °F 54.5 °F 29.82 in ENE 3.5 mph 1.6 mph 54% 0 in 890.50 W/m2
13:39 71.4 °F 53.9 °F 29.82 in ENE 2.3 mph 0.8 mph 54% 0 in 435.00 W/m2
13:44 71 °F 54.5 °F 29.82 in ENE 3.5 mph 2.3 mph 56% 0 in 869.30 W/m2
13:49 71.2 °F 53.7 °F 29.81 in NW 2 mph 0.8 mph 54% 0 in 860.20 W/m2
13:54 71.5 °F 51.3 °F 29.81 in ENE 1.2 mph 0.4 mph 49% 0 in 885.50 W/m2
13:59 71.8 °F 53.2 °F 29.81 in Calm     52% 0 in 865.30 W/m2
14:04 72.1 °F 54 °F 29.81 in NE 1.2 mph 0.6 mph 53% 0 in 890.50 W/m2
14:09 72.4 °F 51.6 °F 29.81 in ENE 3.5 mph 1.3 mph 48% 0 in 772.30 W/m2
14:14 72.2 °F 52 °F 29.80 in ENE 3.5 mph 0.1 mph 49% 0 in 796.60 W/m2
14:19 72.1 °F 53 °F 29.80 in SE 2.3 mph 2.4 mph 51% 0 in 623.90 W/m2
14:24 72.1 °F 51.9 °F 29.80 in ENE 3.5 mph 1.3 mph 49% 0 in 457.20 W/m2
14:29 72.2 °F 52 °F 29.80 in ENE 3.5 mph 1.3 mph 49% 0 in 426.90 W/m2
14:34 72.5 °F 51.7 °F 29.80 in ENE 1.2 mph 1.2 mph 48% 0 in 818.80 W/m2
14:39 72.7 °F 52.4 °F 29.80 in NW 3.5 mph 2.5 mph 49% 0 in 862.20 W/m2
14:44 73 °F 52.7 °F 29.79 in NNW 1.2 mph 0.6 mph 49% 0 in 901.60 W/m2
14:49 73.5 °F 53.2 °F 29.79 in West 3.5 mph 0.4 mph 49% 0 in 905.70 W/m2
14:54 73.7 °F 52.2 °F 29.79 in NNE 3.5 mph 0.4 mph 47% 0 in 876.40 W/m2
14:59 73.6 °F 53.3 °F 29.79 in NNE 3.5 mph 1.7 mph 49% 0 in 889.50 W/m2
15:04 73.5 °F 52.6 °F 29.79 in NNE 2.3 mph 1.1 mph 48% 0 in 881.40 W/m2
15:09 73.4 °F 54.2 °F 29.79 in NNE 1.2 mph 1 mph 51% 0 in 878.40 W/m2
15:14 73.5 °F 51.4 °F 29.79 in Calm     46% 0 in 902.60 W/m2
15:19 73.9 °F 52.4 °F 29.79 in ENE 2.3 mph 0.1 mph 47% 0 in 903.60 W/m2
15:24 74 °F 53.1 °F 29.79 in NE 3 mph 1.4 mph 48% 0 in 883.40 W/m2
15:29 73.6 °F 50.9 °F 29.79 in NE 2.3 mph 0.4 mph 45% 0 in 882.40 W/m2
15:34 73.1 °F 50.5 °F 29.79 in Calm     45% 0 in 818.80 W/m2
15:39 72.8 °F 52 °F 29.78 in NNE 1.2 mph   48% 0 in 864.30 W/m2
15:44 72.9 °F 52.6 °F 29.78 in NNE 2.3 mph 0.1 mph 49% 0 in 900.60 W/m2
Winter, Wisconsin USA
Compliments of Weather Underground - 4 mb